sensor_id;sensor_type;location;lat;lon;timestamp;P1;durP1;ratioP1;P2;durP2;ratioP2
2858;SDS011;1437;53.250;10.406;2022-10-16T00:01:04;8.17;;;4.73;;
2858;SDS011;1437;53.250;10.406;2022-10-16T00:03:32;5.07;;;4.30;;
2858;SDS011;1437;53.250;10.406;2022-10-16T00:05:59;4.80;;;3.60;;
2858;SDS011;1437;53.250;10.406;2022-10-16T00:08:27;7.43;;;5.53;;
2858;SDS011;1437;53.250;10.406;2022-10-16T00:10:58;7.83;;;3.50;;
2858;SDS011;1437;53.250;10.406;2022-10-16T00:13:25;5.40;;;4.10;;
2858;SDS011;1437;53.250;10.406;2022-10-16T00:15:54;6.97;;;4.07;;
2858;SDS011;1437;53.250;10.406;2022-10-16T00:18:21;6.20;;;4.20;;
2858;SDS011;1437;53.250;10.406;2022-10-16T00:20:49;7.47;;;5.63;;
2858;SDS011;1437;53.250;10.406;2022-10-16T00:23:16;6.70;;;4.10;;
2858;SDS011;1437;53.250;10.406;2022-10-16T00:25:43;6.07;;;4.73;;
2858;SDS011;1437;53.250;10.406;2022-10-16T00:28:10;5.20;;;3.87;;
2858;SDS011;1437;53.250;10.406;2022-10-16T00:30:37;5.00;;;3.93;;
2858;SDS011;1437;53.250;10.406;2022-10-16T00:33:04;6.23;;;3.63;;
2858;SDS011;1437;53.250;10.406;2022-10-16T00:35:31;5.50;;;4.00;;
2858;SDS011;1437;53.250;10.406;2022-10-16T00:37:59;6.53;;;3.50;;
2858;SDS011;1437;53.250;10.406;2022-10-16T00:40:26;5.60;;;3.83;;
2858;SDS011;1437;53.250;10.406;2022-10-16T00:42:54;4.07;;;3.50;;
2858;SDS011;1437;53.250;10.406;2022-10-16T00:45:21;7.63;;;3.17;;
2858;SDS011;1437;53.250;10.406;2022-10-16T00:47:48;7.07;;;3.70;;
2858;SDS011;1437;53.250;10.406;2022-10-16T00:50:18;4.53;;;2.80;;
2858;SDS011;1437;53.250;10.406;2022-10-16T00:52:46;4.17;;;3.17;;
2858;SDS011;1437;53.250;10.406;2022-10-16T00:55:14;3.90;;;3.17;;
2858;SDS011;1437;53.250;10.406;2022-10-16T00:57:41;3.47;;;2.73;;
2858;SDS011;1437;53.250;10.406;2022-10-16T01:00:09;4.47;;;2.80;;
2858;SDS011;1437;53.250;10.406;2022-10-16T01:02:37;5.33;;;3.10;;
2858;SDS011;1437;53.250;10.406;2022-10-16T01:05:04;6.93;;;3.43;;
2858;SDS011;1437;53.250;10.406;2022-10-16T01:07:34;7.33;;;2.70;;
2858;SDS011;1437;53.250;10.406;2022-10-16T01:10:07;5.63;;;2.80;;
2858;SDS011;1437;53.250;10.406;2022-10-16T01:12:39;3.80;;;3.17;;
2858;SDS011;1437;53.250;10.406;2022-10-16T01:15:10;3.60;;;2.80;;
2858;SDS011;1437;53.250;10.406;2022-10-16T01:17:40;4.30;;;2.63;;
2858;SDS011;1437;53.250;10.406;2022-10-16T01:20:10;2.97;;;2.20;;
2858;SDS011;1437;53.250;10.406;2022-10-16T01:22:43;3.87;;;1.87;;
2858;SDS011;1437;53.250;10.406;2022-10-16T01:25:13;2.50;;;1.80;;
2858;SDS011;1437;53.250;10.406;2022-10-16T01:27:58;4.47;;;2.23;;
2858;SDS011;1437;53.250;10.406;2022-10-16T01:30:27;3.97;;;2.10;;
2858;SDS011;1437;53.250;10.406;2022-10-16T01:32:56;8.77;;;2.13;;
2858;SDS011;1437;53.250;10.406;2022-10-16T01:35:25;3.50;;;1.90;;
2858;SDS011;1437;53.250;10.406;2022-10-16T01:37:54;6.87;;;1.87;;
2858;SDS011;1437;53.250;10.406;2022-10-16T01:40:23;3.37;;;1.90;;
2858;SDS011;1437;53.250;10.406;2022-10-16T01:42:52;3.50;;;1.90;;
2858;SDS011;1437;53.250;10.406;2022-10-16T01:45:22;6.67;;;1.90;;
2858;SDS011;1437;53.250;10.406;2022-10-16T01:47:49;3.00;;;1.97;;
2858;SDS011;1437;53.250;10.406;2022-10-16T01:50:18;3.47;;;2.20;;
2858;SDS011;1437;53.250;10.406;2022-10-16T01:52:46;2.90;;;1.73;;
2858;SDS011;1437;53.250;10.406;2022-10-16T01:55:18;3.10;;;1.70;;
2858;SDS011;1437;53.250;10.406;2022-10-16T01:57:47;3.23;;;1.90;;
2858;SDS011;1437;53.250;10.406;2022-10-16T02:00:16;4.10;;;1.80;;
2858;SDS011;1437;53.250;10.406;2022-10-16T02:02:46;3.47;;;1.67;;
2858;SDS011;1437;53.250;10.406;2022-10-16T02:05:15;3.77;;;1.60;;
2858;SDS011;1437;53.250;10.406;2022-10-16T02:07:43;2.47;;;1.20;;
2858;SDS011;1437;53.250;10.406;2022-10-16T02:10:24;2.60;;;1.20;;
2858;SDS011;1437;53.250;10.406;2022-10-16T02:12:57;3.33;;;1.33;;
2858;SDS011;1437;53.250;10.406;2022-10-16T02:15:26;4.23;;;1.43;;
2858;SDS011;1437;53.250;10.406;2022-10-16T02:17:54;2.10;;;1.23;;
2858;SDS011;1437;53.250;10.406;2022-10-16T02:20:22;2.73;;;1.37;;
2858;SDS011;1437;53.250;10.406;2022-10-16T02:22:51;4.10;;;1.40;;
2858;SDS011;1437;53.250;10.406;2022-10-16T02:25:22;3.13;;;1.27;;
2858;SDS011;1437;53.250;10.406;2022-10-16T02:27:52;3.90;;;1.10;;
2858;SDS011;1437;53.250;10.406;2022-10-16T02:30:21;4.23;;;1.30;;
2858;SDS011;1437;53.250;10.406;2022-10-16T02:32:50;6.17;;;1.20;;
2858;SDS011;1437;53.250;10.406;2022-10-16T02:35:19;5.30;;;1.57;;
2858;SDS011;1437;53.250;10.406;2022-10-16T02:37:46;12.60;;;1.47;;
2858;SDS011;1437;53.250;10.406;2022-10-16T02:40:14;2.10;;;0.90;;
2858;SDS011;1437;53.250;10.406;2022-10-16T02:42:41;1.90;;;0.97;;
2858;SDS011;1437;53.250;10.406;2022-10-16T02:45:09;2.37;;;0.80;;
2858;SDS011;1437;53.250;10.406;2022-10-16T02:47:36;7.80;;;1.47;;
2858;SDS011;1437;53.250;10.406;2022-10-16T02:50:04;2.90;;;1.37;;
2858;SDS011;1437;53.250;10.406;2022-10-16T02:52:31;2.30;;;1.13;;
2858;SDS011;1437;53.250;10.406;2022-10-16T02:54:58;1.90;;;0.83;;
2858;SDS011;1437;53.250;10.406;2022-10-16T02:57:26;2.60;;;1.70;;
2858;SDS011;1437;53.250;10.406;2022-10-16T02:59:55;2.70;;;1.00;;
2858;SDS011;1437;53.250;10.406;2022-10-16T03:02:22;2.50;;;1.10;;
2858;SDS011;1437;53.250;10.406;2022-10-16T03:04:49;5.43;;;2.57;;
2858;SDS011;1437;53.250;10.406;2022-10-16T03:07:16;3.27;;;1.60;;
2858;SDS011;1437;53.250;10.406;2022-10-16T03:09:45;3.90;;;1.20;;
2858;SDS011;1437;53.250;10.406;2022-10-16T03:12:12;3.10;;;1.30;;
2858;SDS011;1437;53.250;10.406;2022-10-16T03:14:39;3.87;;;1.27;;
2858;SDS011;1437;53.250;10.406;2022-10-16T03:17:06;3.57;;;1.30;;
2858;SDS011;1437;53.250;10.406;2022-10-16T03:19:33;2.23;;;1.23;;
2858;SDS011;1437;53.250;10.406;2022-10-16T03:22:01;2.20;;;1.23;;
2858;SDS011;1437;53.250;10.406;2022-10-16T03:24:28;1.80;;;0.90;;
2858;SDS011;1437;53.250;10.406;2022-10-16T03:26:55;3.70;;;1.70;;
2858;SDS011;1437;53.250;10.406;2022-10-16T03:29:25;2.33;;;1.13;;
2858;SDS011;1437;53.250;10.406;2022-10-16T03:31:54;2.70;;;1.10;;
2858;SDS011;1437;53.250;10.406;2022-10-16T03:34:21;2.10;;;1.00;;
2858;SDS011;1437;53.250;10.406;2022-10-16T03:36:49;2.57;;;1.27;;
2858;SDS011;1437;53.250;10.406;2022-10-16T03:39:16;2.93;;;1.33;;
2858;SDS011;1437;53.250;10.406;2022-10-16T03:41:46;3.70;;;1.50;;
2858;SDS011;1437;53.250;10.406;2022-10-16T03:44:16;5.33;;;1.30;;
2858;SDS011;1437;53.250;10.406;2022-10-16T03:46:47;2.67;;;1.30;;
2858;SDS011;1437;53.250;10.406;2022-10-16T03:49:16;2.70;;;0.90;;
2858;SDS011;1437;53.250;10.406;2022-10-16T03:51:43;4.20;;;1.20;;
2858;SDS011;1437;53.250;10.406;2022-10-16T03:54:10;2.43;;;1.20;;
2858;SDS011;1437;53.250;10.406;2022-10-16T03:56:37;3.53;;;1.60;;
2858;SDS011;1437;53.250;10.406;2022-10-16T03:59:04;2.37;;;1.10;;
2858;SDS011;1437;53.250;10.406;2022-10-16T04:01:32;2.63;;;1.00;;
2858;SDS011;1437;53.250;10.406;2022-10-16T04:03:59;2.67;;;1.00;;
2858;SDS011;1437;53.250;10.406;2022-10-16T04:06:26;2.47;;;1.00;;
2858;SDS011;1437;53.250;10.406;2022-10-16T04:08:53;2.17;;;1.30;;
2858;SDS011;1437;53.250;10.406;2022-10-16T04:11:20;2.67;;;1.13;;
2858;SDS011;1437;53.250;10.406;2022-10-16T04:13:47;2.67;;;1.10;;
2858;SDS011;1437;53.250;10.406;2022-10-16T04:16:22;3.40;;;1.40;;
2858;SDS011;1437;53.250;10.406;2022-10-16T04:18:49;4.63;;;1.30;;
2858;SDS011;1437;53.250;10.406;2022-10-16T04:21:16;3.20;;;1.40;;
2858;SDS011;1437;53.250;10.406;2022-10-16T04:23:43;5.67;;;1.50;;
2858;SDS011;1437;53.250;10.406;2022-10-16T04:26:12;2.80;;;2.40;;
2858;SDS011;1437;53.250;10.406;2022-10-16T04:28:39;7.63;;;1.27;;
2858;SDS011;1437;53.250;10.406;2022-10-16T04:31:07;2.30;;;1.40;;
2858;SDS011;1437;53.250;10.406;2022-10-16T04:33:34;3.80;;;1.50;;
2858;SDS011;1437;53.250;10.406;2022-10-16T04:36:02;2.00;;;1.10;;
2858;SDS011;1437;53.250;10.406;2022-10-16T04:38:29;2.67;;;1.40;;
2858;SDS011;1437;53.250;10.406;2022-10-16T04:40:56;7.60;;;1.93;;
2858;SDS011;1437;53.250;10.406;2022-10-16T04:43:23;4.13;;;1.17;;
2858;SDS011;1437;53.250;10.406;2022-10-16T04:45:54;5.03;;;1.73;;
2858;SDS011;1437;53.250;10.406;2022-10-16T04:48:26;2.70;;;1.80;;
2858;SDS011;1437;53.250;10.406;2022-10-16T04:50:54;2.07;;;1.30;;
2858;SDS011;1437;53.250;10.406;2022-10-16T04:53:21;5.83;;;1.63;;
2858;SDS011;1437;53.250;10.406;2022-10-16T04:55:48;2.27;;;1.30;;
2858;SDS011;1437;53.250;10.406;2022-10-16T04:58:15;2.33;;;1.10;;
2858;SDS011;1437;53.250;10.406;2022-10-16T05:00:42;5.83;;;1.30;;
2858;SDS011;1437;53.250;10.406;2022-10-16T05:03:11;6.67;;;1.60;;
2858;SDS011;1437;53.250;10.406;2022-10-16T05:05:41;2.63;;;1.17;;
2858;SDS011;1437;53.250;10.406;2022-10-16T05:08:09;3.40;;;1.57;;
2858;SDS011;1437;53.250;10.406;2022-10-16T05:10:37;2.90;;;1.50;;
2858;SDS011;1437;53.250;10.406;2022-10-16T05:13:06;2.70;;;1.50;;
2858;SDS011;1437;53.250;10.406;2022-10-16T05:15:33;3.00;;;2.27;;
2858;SDS011;1437;53.250;10.406;2022-10-16T05:18:00;4.30;;;1.30;;
2858;SDS011;1437;53.250;10.406;2022-10-16T05:20:27;2.37;;;1.33;;
2858;SDS011;1437;53.250;10.406;2022-10-16T05:22:54;2.13;;;1.30;;
2858;SDS011;1437;53.250;10.406;2022-10-16T05:25:21;6.27;;;1.60;;
2858;SDS011;1437;53.250;10.406;2022-10-16T05:27:49;4.47;;;1.70;;
2858;SDS011;1437;53.250;10.406;2022-10-16T05:30:17;3.07;;;1.77;;
2858;SDS011;1437;53.250;10.406;2022-10-16T05:32:46;4.20;;;1.60;;
2858;SDS011;1437;53.250;10.406;2022-10-16T05:35:13;4.50;;;1.33;;
2858;SDS011;1437;53.250;10.406;2022-10-16T05:37:40;2.23;;;1.50;;
2858;SDS011;1437;53.250;10.406;2022-10-16T05:40:08;5.23;;;1.30;;
2858;SDS011;1437;53.250;10.406;2022-10-16T05:42:35;4.27;;;1.73;;
2858;SDS011;1437;53.250;10.406;2022-10-16T05:45:03;2.30;;;1.40;;
2858;SDS011;1437;53.250;10.406;2022-10-16T05:47:30;2.93;;;1.77;;
2858;SDS011;1437;53.250;10.406;2022-10-16T05:49:57;4.90;;;1.73;;
2858;SDS011;1437;53.250;10.406;2022-10-16T05:52:24;6.13;;;1.50;;
2858;SDS011;1437;53.250;10.406;2022-10-16T05:54:51;2.70;;;1.60;;
2858;SDS011;1437;53.250;10.406;2022-10-16T05:57:18;3.77;;;1.47;;
2858;SDS011;1437;53.250;10.406;2022-10-16T05:59:46;3.47;;;1.30;;
2858;SDS011;1437;53.250;10.406;2022-10-16T06:02:14;4.33;;;1.27;;
2858;SDS011;1437;53.250;10.406;2022-10-16T06:04:41;2.40;;;1.37;;
2858;SDS011;1437;53.250;10.406;2022-10-16T06:07:08;3.47;;;1.90;;
2858;SDS011;1437;53.250;10.406;2022-10-16T06:09:35;4.17;;;1.93;;
2858;SDS011;1437;53.250;10.406;2022-10-16T06:12:02;4.83;;;1.60;;
2858;SDS011;1437;53.250;10.406;2022-10-16T06:14:29;3.70;;;1.67;;
2858;SDS011;1437;53.250;10.406;2022-10-16T06:16:56;4.63;;;1.80;;
2858;SDS011;1437;53.250;10.406;2022-10-16T06:19:44;2.33;;;1.20;;
2858;SDS011;1437;53.250;10.406;2022-10-16T06:22:35;2.67;;;1.63;;
2858;SDS011;1437;53.250;10.406;2022-10-16T06:25:19;2.47;;;1.47;;
2858;SDS011;1437;53.250;10.406;2022-10-16T06:27:46;5.87;;;1.47;;
2858;SDS011;1437;53.250;10.406;2022-10-16T06:30:13;5.97;;;2.40;;
2858;SDS011;1437;53.250;10.406;2022-10-16T06:32:40;5.33;;;1.70;;
2858;SDS011;1437;53.250;10.406;2022-10-16T06:35:08;5.77;;;1.50;;
2858;SDS011;1437;53.250;10.406;2022-10-16T06:37:35;3.30;;;1.70;;
2858;SDS011;1437;53.250;10.406;2022-10-16T06:40:02;4.30;;;2.03;;
2858;SDS011;1437;53.250;10.406;2022-10-16T06:42:30;6.40;;;2.00;;
2858;SDS011;1437;53.250;10.406;2022-10-16T06:44:56;3.43;;;1.47;;
2858;SDS011;1437;53.250;10.406;2022-10-16T06:47:23;2.50;;;1.50;;
2858;SDS011;1437;53.250;10.406;2022-10-16T06:49:50;4.20;;;1.67;;
2858;SDS011;1437;53.250;10.406;2022-10-16T06:52:18;2.03;;;1.20;;
2858;SDS011;1437;53.250;10.406;2022-10-16T06:54:45;3.10;;;1.47;;
2858;SDS011;1437;53.250;10.406;2022-10-16T06:57:12;5.33;;;2.17;;
2858;SDS011;1437;53.250;10.406;2022-10-16T06:59:41;2.60;;;1.30;;
2858;SDS011;1437;53.250;10.406;2022-10-16T07:02:08;3.43;;;1.50;;
2858;SDS011;1437;53.250;10.406;2022-10-16T07:04:35;7.50;;;2.30;;
2858;SDS011;1437;53.250;10.406;2022-10-16T07:07:02;3.00;;;1.70;;
2858;SDS011;1437;53.250;10.406;2022-10-16T07:09:35;6.03;;;1.63;;
2858;SDS011;1437;53.250;10.406;2022-10-16T07:12:02;3.40;;;1.53;;
2858;SDS011;1437;53.250;10.406;2022-10-16T07:14:29;5.27;;;2.07;;
2858;SDS011;1437;53.250;10.406;2022-10-16T07:16:57;2.87;;;1.53;;
2858;SDS011;1437;53.250;10.406;2022-10-16T07:19:24;3.10;;;1.50;;
2858;SDS011;1437;53.250;10.406;2022-10-16T07:21:51;4.03;;;2.03;;
2858;SDS011;1437;53.250;10.406;2022-10-16T07:24:19;3.40;;;2.00;;
2858;SDS011;1437;53.250;10.406;2022-10-16T07:26:47;2.77;;;1.60;;
2858;SDS011;1437;53.250;10.406;2022-10-16T07:29:14;3.60;;;1.70;;
2858;SDS011;1437;53.250;10.406;2022-10-16T07:31:44;4.70;;;1.80;;
2858;SDS011;1437;53.250;10.406;2022-10-16T07:34:11;5.10;;;1.80;;
2858;SDS011;1437;53.250;10.406;2022-10-16T07:36:38;3.47;;;1.67;;
2858;SDS011;1437;53.250;10.406;2022-10-16T07:39:05;4.90;;;1.80;;
2858;SDS011;1437;53.250;10.406;2022-10-16T07:41:32;6.23;;;2.33;;
2858;SDS011;1437;53.250;10.406;2022-10-16T07:44:02;7.53;;;2.07;;
2858;SDS011;1437;53.250;10.406;2022-10-16T07:46:30;4.20;;;2.10;;
2858;SDS011;1437;53.250;10.406;2022-10-16T07:49:00;3.17;;;1.80;;
2858;SDS011;1437;53.250;10.406;2022-10-16T07:51:27;6.10;;;1.83;;
2858;SDS011;1437;53.250;10.406;2022-10-16T07:53:54;3.87;;;2.20;;
2858;SDS011;1437;53.250;10.406;2022-10-16T07:56:21;3.40;;;1.90;;
2858;SDS011;1437;53.250;10.406;2022-10-16T07:58:48;3.37;;;1.80;;
2858;SDS011;1437;53.250;10.406;2022-10-16T08:01:17;6.80;;;2.00;;
2858;SDS011;1437;53.250;10.406;2022-10-16T08:03:44;4.60;;;1.80;;
2858;SDS011;1437;53.250;10.406;2022-10-16T08:06:12;3.20;;;1.83;;
2858;SDS011;1437;53.250;10.406;2022-10-16T08:08:39;3.17;;;1.60;;
2858;SDS011;1437;53.250;10.406;2022-10-16T08:11:06;8.97;;;1.33;;
2858;SDS011;1437;53.250;10.406;2022-10-16T08:13:33;3.33;;;1.47;;
2858;SDS011;1437;53.250;10.406;2022-10-16T08:16:00;2.93;;;1.47;;
2858;SDS011;1437;53.250;10.406;2022-10-16T08:18:29;4.90;;;1.60;;
2858;SDS011;1437;53.250;10.406;2022-10-16T08:20:56;4.70;;;1.33;;
2858;SDS011;1437;53.250;10.406;2022-10-16T08:23:24;2.20;;;1.20;;
2858;SDS011;1437;53.250;10.406;2022-10-16T08:25:51;2.87;;;1.00;;
2858;SDS011;1437;53.250;10.406;2022-10-16T08:28:19;3.63;;;1.40;;
2858;SDS011;1437;53.250;10.406;2022-10-16T08:30:46;3.00;;;1.50;;
2858;SDS011;1437;53.250;10.406;2022-10-16T08:33:13;1.70;;;0.90;;
2858;SDS011;1437;53.250;10.406;2022-10-16T08:35:50;1.93;;;1.07;;
2858;SDS011;1437;53.250;10.406;2022-10-16T08:38:20;2.10;;;1.30;;
2858;SDS011;1437;53.250;10.406;2022-10-16T08:40:47;1.90;;;1.10;;
2858;SDS011;1437;53.250;10.406;2022-10-16T08:43:22;1.90;;;1.00;;
2858;SDS011;1437;53.250;10.406;2022-10-16T08:45:57;2.47;;;1.43;;
2858;SDS011;1437;53.250;10.406;2022-10-16T08:48:28;3.63;;;1.47;;
2858;SDS011;1437;53.250;10.406;2022-10-16T08:50:57;8.07;;;1.83;;
2858;SDS011;1437;53.250;10.406;2022-10-16T08:53:28;2.70;;;1.47;;
2858;SDS011;1437;53.250;10.406;2022-10-16T08:55:56;3.93;;;1.67;;
2858;SDS011;1437;53.250;10.406;2022-10-16T08:58:26;2.50;;;1.30;;
2858;SDS011;1437;53.250;10.406;2022-10-16T09:00:53;3.07;;;1.30;;
2858;SDS011;1437;53.250;10.406;2022-10-16T09:03:25;3.90;;;1.20;;
2858;SDS011;1437;53.250;10.406;2022-10-16T09:06:07;3.87;;;1.00;;
2858;SDS011;1437;53.250;10.406;2022-10-16T09:08:40;4.90;;;1.97;;
2858;SDS011;1437;53.250;10.406;2022-10-16T09:11:14;4.83;;;1.20;;
2858;SDS011;1437;53.250;10.406;2022-10-16T09:13:46;4.43;;;1.40;;
2858;SDS011;1437;53.250;10.406;2022-10-16T09:16:16;1.70;;;0.90;;
2858;SDS011;1437;53.250;10.406;2022-10-16T09:18:48;2.63;;;1.00;;
2858;SDS011;1437;53.250;10.406;2022-10-16T09:21:19;2.43;;;1.13;;
2858;SDS011;1437;53.250;10.406;2022-10-16T09:23:48;3.20;;;1.17;;
2858;SDS011;1437;53.250;10.406;2022-10-16T09:26:16;1.63;;;0.80;;
2858;SDS011;1437;53.250;10.406;2022-10-16T09:28:44;2.03;;;1.17;;
2858;SDS011;1437;53.250;10.406;2022-10-16T09:31:13;3.70;;;1.13;;
2858;SDS011;1437;53.250;10.406;2022-10-16T09:33:42;2.10;;;1.10;;
2858;SDS011;1437;53.250;10.406;2022-10-16T09:36:09;2.47;;;0.97;;
2858;SDS011;1437;53.250;10.406;2022-10-16T09:38:41;2.00;;;0.77;;
2858;SDS011;1437;53.250;10.406;2022-10-16T09:41:13;3.30;;;0.90;;
2858;SDS011;1437;53.250;10.406;2022-10-16T09:43:42;3.70;;;1.43;;
2858;SDS011;1437;53.250;10.406;2022-10-16T09:46:21;3.40;;;1.37;;
2858;SDS011;1437;53.250;10.406;2022-10-16T09:48:48;6.73;;;1.40;;
2858;SDS011;1437;53.250;10.406;2022-10-16T09:51:17;2.50;;;1.10;;
2858;SDS011;1437;53.250;10.406;2022-10-16T09:53:46;1.90;;;1.00;;
2858;SDS011;1437;53.250;10.406;2022-10-16T09:56:20;1.40;;;0.60;;
2858;SDS011;1437;53.250;10.406;2022-10-16T09:58:49;2.70;;;0.90;;
2858;SDS011;1437;53.250;10.406;2022-10-16T10:01:19;2.43;;;1.10;;
2858;SDS011;1437;53.250;10.406;2022-10-16T10:03:47;1.77;;;0.53;;
2858;SDS011;1437;53.250;10.406;2022-10-16T10:06:16;5.10;;;0.80;;
2858;SDS011;1437;53.250;10.406;2022-10-16T10:09:02;5.83;;;0.93;;
2858;SDS011;1437;53.250;10.406;2022-10-16T10:11:41;3.27;;;1.50;;
2858;SDS011;1437;53.250;10.406;2022-10-16T10:14:18;5.20;;;1.80;;
2858;SDS011;1437;53.250;10.406;2022-10-16T10:16:46;3.63;;;1.30;;
2858;SDS011;1437;53.250;10.406;2022-10-16T10:19:14;3.30;;;0.80;;
2858;SDS011;1437;53.250;10.406;2022-10-16T10:21:41;2.43;;;0.80;;
2858;SDS011;1437;53.250;10.406;2022-10-16T10:24:11;3.23;;;1.03;;
2858;SDS011;1437;53.250;10.406;2022-10-16T10:26:38;3.53;;;1.17;;
2858;SDS011;1437;53.250;10.406;2022-10-16T10:29:06;2.03;;;0.70;;
2858;SDS011;1437;53.250;10.406;2022-10-16T10:31:42;2.07;;;0.90;;
2858;SDS011;1437;53.250;10.406;2022-10-16T10:34:32;6.10;;;1.03;;
2858;SDS011;1437;53.250;10.406;2022-10-16T10:37:06;1.97;;;0.90;;
2858;SDS011;1437;53.250;10.406;2022-10-16T10:39:38;2.53;;;0.87;;
2858;SDS011;1437;53.250;10.406;2022-10-16T10:42:11;2.53;;;1.13;;
2858;SDS011;1437;53.250;10.406;2022-10-16T10:44:52;2.50;;;1.20;;
2858;SDS011;1437;53.250;10.406;2022-10-16T10:47:24;4.70;;;0.83;;
2858;SDS011;1437;53.250;10.406;2022-10-16T10:49:56;4.13;;;1.00;;
2858;SDS011;1437;53.250;10.406;2022-10-16T10:52:32;5.33;;;1.40;;
2858;SDS011;1437;53.250;10.406;2022-10-16T10:55:06;2.00;;;0.70;;
2858;SDS011;1437;53.250;10.406;2022-10-16T10:57:37;8.47;;;0.90;;
2858;SDS011;1437;53.250;10.406;2022-10-16T11:00:15;1.53;;;0.60;;
2858;SDS011;1437;53.250;10.406;2022-10-16T11:02:52;2.03;;;0.70;;
2858;SDS011;1437;53.250;10.406;2022-10-16T11:05:33;4.23;;;1.00;;
2858;SDS011;1437;53.250;10.406;2022-10-16T11:08:06;2.63;;;0.90;;
2858;SDS011;1437;53.250;10.406;2022-10-16T11:10:40;2.90;;;0.87;;
2858;SDS011;1437;53.250;10.406;2022-10-16T11:13:10;5.30;;;2.10;;
2858;SDS011;1437;53.250;10.406;2022-10-16T11:15:43;2.87;;;0.80;;
2858;SDS011;1437;53.250;10.406;2022-10-16T11:18:13;5.53;;;0.80;;
2858;SDS011;1437;53.250;10.406;2022-10-16T11:20:44;4.57;;;1.80;;
2858;SDS011;1437;53.250;10.406;2022-10-16T11:23:14;1.80;;;0.70;;
2858;SDS011;1437;53.250;10.406;2022-10-16T11:25:43;1.87;;;0.70;;
2858;SDS011;1437;53.250;10.406;2022-10-16T11:28:11;4.70;;;0.70;;
2858;SDS011;1437;53.250;10.406;2022-10-16T11:30:40;3.53;;;1.77;;
2858;SDS011;1437;53.250;10.406;2022-10-16T11:33:18;2.57;;;0.90;;
2858;SDS011;1437;53.250;10.406;2022-10-16T11:35:47;3.00;;;0.80;;
2858;SDS011;1437;53.250;10.406;2022-10-16T11:38:17;2.93;;;1.03;;
2858;SDS011;1437;53.250;10.406;2022-10-16T11:40:47;2.70;;;0.80;;
2858;SDS011;1437;53.250;10.406;2022-10-16T11:43:20;4.33;;;1.17;;
2858;SDS011;1437;53.250;10.406;2022-10-16T11:45:49;2.50;;;0.73;;
2858;SDS011;1437;53.250;10.406;2022-10-16T11:48:21;3.13;;;0.90;;
2858;SDS011;1437;53.250;10.406;2022-10-16T11:50:50;5.10;;;1.17;;
2858;SDS011;1437;53.250;10.406;2022-10-16T11:53:20;2.10;;;0.63;;
2858;SDS011;1437;53.250;10.406;2022-10-16T11:55:49;1.67;;;0.70;;
2858;SDS011;1437;53.250;10.406;2022-10-16T11:58:18;3.30;;;0.90;;
2858;SDS011;1437;53.250;10.406;2022-10-16T12:00:51;3.93;;;1.63;;
2858;SDS011;1437;53.250;10.406;2022-10-16T12:03:21;2.23;;;0.60;;
2858;SDS011;1437;53.250;10.406;2022-10-16T12:05:55;2.33;;;0.67;;
2858;SDS011;1437;53.250;10.406;2022-10-16T12:08:23;2.90;;;0.80;;
2858;SDS011;1437;53.250;10.406;2022-10-16T12:10:51;2.93;;;0.87;;
2858;SDS011;1437;53.250;10.406;2022-10-16T12:13:30;3.87;;;0.87;;
2858;SDS011;1437;53.250;10.406;2022-10-16T12:16:04;1.90;;;0.80;;
2858;SDS011;1437;53.250;10.406;2022-10-16T12:18:32;2.40;;;0.90;;
2858;SDS011;1437;53.250;10.406;2022-10-16T12:20:59;5.03;;;1.00;;
2858;SDS011;1437;53.250;10.406;2022-10-16T12:23:31;2.03;;;0.77;;
2858;SDS011;1437;53.250;10.406;2022-10-16T12:26:00;2.93;;;0.93;;
2858;SDS011;1437;53.250;10.406;2022-10-16T12:28:30;2.07;;;0.80;;
2858;SDS011;1437;53.250;10.406;2022-10-16T12:30:59;2.03;;;0.70;;
2858;SDS011;1437;53.250;10.406;2022-10-16T12:33:28;2.13;;;0.80;;
2858;SDS011;1437;53.250;10.406;2022-10-16T12:35:55;2.87;;;1.00;;
2858;SDS011;1437;53.250;10.406;2022-10-16T12:38:25;2.60;;;1.00;;
2858;SDS011;1437;53.250;10.406;2022-10-16T12:40:57;4.33;;;0.93;;
2858;SDS011;1437;53.250;10.406;2022-10-16T12:43:27;5.90;;;0.90;;
2858;SDS011;1437;53.250;10.406;2022-10-16T12:46:02;3.57;;;0.90;;
2858;SDS011;1437;53.250;10.406;2022-10-16T12:48:31;4.10;;;0.90;;
2858;SDS011;1437;53.250;10.406;2022-10-16T12:51:10;2.37;;;0.80;;
2858;SDS011;1437;53.250;10.406;2022-10-16T12:53:38;1.90;;;0.87;;
2858;SDS011;1437;53.250;10.406;2022-10-16T12:56:09;3.97;;;1.00;;
2858;SDS011;1437;53.250;10.406;2022-10-16T12:58:44;4.00;;;0.90;;
2858;SDS011;1437;53.250;10.406;2022-10-16T13:01:17;2.63;;;0.93;;
2858;SDS011;1437;53.250;10.406;2022-10-16T13:03:58;3.03;;;0.97;;
2858;SDS011;1437;53.250;10.406;2022-10-16T13:06:33;3.23;;;1.07;;
2858;SDS011;1437;53.250;10.406;2022-10-16T13:09:17;1.70;;;0.60;;
2858;SDS011;1437;53.250;10.406;2022-10-16T13:11:58;3.30;;;1.10;;
2858;SDS011;1437;53.250;10.406;2022-10-16T13:14:33;2.53;;;0.90;;
2858;SDS011;1437;53.250;10.406;2022-10-16T13:17:05;3.27;;;1.80;;
2858;SDS011;1437;53.250;10.406;2022-10-16T13:19:35;2.40;;;0.80;;
2858;SDS011;1437;53.250;10.406;2022-10-16T13:22:17;2.10;;;0.67;;
2858;SDS011;1437;53.250;10.406;2022-10-16T13:24:54;4.20;;;0.70;;
2858;SDS011;1437;53.250;10.406;2022-10-16T13:27:25;1.80;;;0.80;;
2858;SDS011;1437;53.250;10.406;2022-10-16T13:29:59;3.00;;;0.90;;
2858;SDS011;1437;53.250;10.406;2022-10-16T13:32:27;2.90;;;1.03;;
2858;SDS011;1437;53.250;10.406;2022-10-16T13:34:55;3.00;;;0.80;;
2858;SDS011;1437;53.250;10.406;2022-10-16T13:37:23;4.90;;;1.37;;
2858;SDS011;1437;53.250;10.406;2022-10-16T13:40:01;4.10;;;0.80;;
2858;SDS011;1437;53.250;10.406;2022-10-16T13:42:29;3.93;;;0.77;;
2858;SDS011;1437;53.250;10.406;2022-10-16T13:44:58;3.33;;;1.60;;
2858;SDS011;1437;53.250;10.406;2022-10-16T13:47:25;4.23;;;1.20;;
2858;SDS011;1437;53.250;10.406;2022-10-16T13:49:59;3.43;;;0.80;;
2858;SDS011;1437;53.250;10.406;2022-10-16T13:52:26;4.60;;;1.10;;
2858;SDS011;1437;53.250;10.406;2022-10-16T13:54:53;7.23;;;1.13;;
2858;SDS011;1437;53.250;10.406;2022-10-16T13:57:21;7.40;;;1.00;;
2858;SDS011;1437;53.250;10.406;2022-10-16T13:59:49;5.77;;;1.27;;
2858;SDS011;1437;53.250;10.406;2022-10-16T14:02:19;3.07;;;1.00;;
2858;SDS011;1437;53.250;10.406;2022-10-16T14:04:48;2.07;;;0.77;;
2858;SDS011;1437;53.250;10.406;2022-10-16T14:07:18;1.93;;;0.90;;
2858;SDS011;1437;53.250;10.406;2022-10-16T14:09:50;2.63;;;0.70;;
2858;SDS011;1437;53.250;10.406;2022-10-16T14:12:18;2.77;;;1.10;;
2858;SDS011;1437;53.250;10.406;2022-10-16T14:14:45;2.87;;;0.60;;
2858;SDS011;1437;53.250;10.406;2022-10-16T14:17:13;3.40;;;0.90;;
2858;SDS011;1437;53.250;10.406;2022-10-16T14:19:44;2.70;;;1.00;;
2858;SDS011;1437;53.250;10.406;2022-10-16T14:22:19;2.77;;;0.97;;
2858;SDS011;1437;53.250;10.406;2022-10-16T14:24:48;1.93;;;0.80;;
2858;SDS011;1437;53.250;10.406;2022-10-16T14:27:23;2.33;;;0.60;;
2858;SDS011;1437;53.250;10.406;2022-10-16T14:30:01;4.17;;;0.83;;
2858;SDS011;1437;53.250;10.406;2022-10-16T14:32:28;2.13;;;0.80;;
2858;SDS011;1437;53.250;10.406;2022-10-16T14:34:56;3.50;;;0.80;;
2858;SDS011;1437;53.250;10.406;2022-10-16T14:37:23;2.03;;;0.80;;
2858;SDS011;1437;53.250;10.406;2022-10-16T14:39:51;5.13;;;1.30;;
2858;SDS011;1437;53.250;10.406;2022-10-16T14:42:19;4.60;;;1.30;;
2858;SDS011;1437;53.250;10.406;2022-10-16T14:44:49;5.10;;;1.03;;
2858;SDS011;1437;53.250;10.406;2022-10-16T14:47:18;13.83;;;0.97;;
2858;SDS011;1437;53.250;10.406;2022-10-16T14:49:49;4.23;;;0.93;;
2858;SDS011;1437;53.250;10.406;2022-10-16T14:52:19;2.30;;;0.80;;
2858;SDS011;1437;53.250;10.406;2022-10-16T14:54:47;6.03;;;1.27;;
2858;SDS011;1437;53.250;10.406;2022-10-16T14:57:18;4.50;;;1.40;;
2858;SDS011;1437;53.250;10.406;2022-10-16T14:59:47;2.40;;;0.93;;
2858;SDS011;1437;53.250;10.406;2022-10-16T15:02:23;3.97;;;0.80;;
2858;SDS011;1437;53.250;10.406;2022-10-16T15:04:52;2.03;;;0.90;;
2858;SDS011;1437;53.250;10.406;2022-10-16T15:07:19;3.60;;;0.80;;
2858;SDS011;1437;53.250;10.406;2022-10-16T15:09:47;3.07;;;1.07;;
2858;SDS011;1437;53.250;10.406;2022-10-16T15:12:17;4.07;;;1.17;;
2858;SDS011;1437;53.250;10.406;2022-10-16T15:14:44;2.87;;;0.80;;